sensor_id;sensor_type;location;lat;lon;timestamp;temperature;humidity
5210;DHT22;2624;48.048;11.706;2023-08-08T00:03:14;11.90;99.90
5210;DHT22;2624;48.048;11.706;2023-08-08T00:08:17;11.90;99.90
5210;DHT22;2624;48.048;11.706;2023-08-08T00:13:19;11.90;99.90
5210;DHT22;2624;48.048;11.706;2023-08-08T00:18:20;11.90;99.90
5210;DHT22;2624;48.048;11.706;2023-08-08T00:23:24;11.80;99.90
5210;DHT22;2624;48.048;11.706;2023-08-08T00:28:25;11.70;99.90
5210;DHT22;2624;48.048;11.706;2023-08-08T00:33:27;11.80;99.90
5210;DHT22;2624;48.048;11.706;2023-08-08T00:38:30;11.80;99.90
5210;DHT22;2624;48.048;11.706;2023-08-08T00:43:32;11.70;99.90
5210;DHT22;2624;48.048;11.706;2023-08-08T00:48:34;11.70;99.90
5210;DHT22;2624;48.048;11.706;2023-08-08T00:53:37;11.80;99.90
5210;DHT22;2624;48.048;11.706;2023-08-08T00:58:39;11.60;99.90
5210;DHT22;2624;48.048;11.706;2023-08-08T01:03:41;11.80;99.90
5210;DHT22;2624;48.048;11.706;2023-08-08T01:08:48;11.70;99.90
5210;DHT22;2624;48.048;11.706;2023-08-08T01:13:53;11.90;99.90
5210;DHT22;2624;48.048;11.706;2023-08-08T01:18:56;11.90;99.90
5210;DHT22;2624;48.048;11.706;2023-08-08T01:24:15;11.90;99.90
5210;DHT22;2624;48.048;11.706;2023-08-08T01:29:18;11.90;99.90
5210;DHT22;2624;48.048;11.706;2023-08-08T01:34:20;11.80;99.90
5210;DHT22;2624;48.048;11.706;2023-08-08T01:39:26;11.70;99.90
5210;DHT22;2624;48.048;11.706;2023-08-08T01:44:29;11.80;99.90
5210;DHT22;2624;48.048;11.706;2023-08-08T01:49:33;11.80;99.90
5210;DHT22;2624;48.048;11.706;2023-08-08T01:54:36;11.60;99.90
5210;DHT22;2624;48.048;11.706;2023-08-08T01:59:38;11.60;99.90
5210;DHT22;2624;48.048;11.706;2023-08-08T02:04:39;11.70;99.90
5210;DHT22;2624;48.048;11.706;2023-08-08T02:09:42;11.50;99.90
5210;DHT22;2624;48.048;11.706;2023-08-08T02:14:46;11.40;99.90
5210;DHT22;2624;48.048;11.706;2023-08-08T02:19:48;11.50;99.90
5210;DHT22;2624;48.048;11.706;2023-08-08T02:24:51;11.40;99.90
5210;DHT22;2624;48.048;11.706;2023-08-08T02:29:53;11.60;99.90
5210;DHT22;2624;48.048;11.706;2023-08-08T02:34:54;11.70;99.90
5210;DHT22;2624;48.048;11.706;2023-08-08T02:39:58;11.40;99.90
5210;DHT22;2624;48.048;11.706;2023-08-08T02:44:59;11.40;99.90
5210;DHT22;2624;48.048;11.706;2023-08-08T02:50:01;11.50;99.90
5210;DHT22;2624;48.048;11.706;2023-08-08T02:55:06;11.40;99.90
5210;DHT22;2624;48.048;11.706;2023-08-08T03:00:08;11.50;99.90
5210;DHT22;2624;48.048;11.706;2023-08-08T03:05:12;11.70;99.90
5210;DHT22;2624;48.048;11.706;2023-08-08T03:10:15;11.50;99.90
5210;DHT22;2624;48.048;11.706;2023-08-08T03:15:17;11.50;99.90
5210;DHT22;2624;48.048;11.706;2023-08-08T03:20:19;11.50;99.90
5210;DHT22;2624;48.048;11.706;2023-08-08T03:25:22;11.60;99.90
5210;DHT22;2624;48.048;11.706;2023-08-08T03:30:25;11.60;99.90
5210;DHT22;2624;48.048;11.706;2023-08-08T03:35:27;11.50;99.90
5210;DHT22;2624;48.048;11.706;2023-08-08T03:40:30;11.50;99.90
5210;DHT22;2624;48.048;11.706;2023-08-08T03:45:32;11.30;99.90
5210;DHT22;2624;48.048;11.706;2023-08-08T03:50:34;11.30;99.90
5210;DHT22;2624;48.048;11.706;2023-08-08T03:55:37;10.90;99.90
5210;DHT22;2624;48.048;11.706;2023-08-08T04:00:39;11.20;99.90
5210;DHT22;2624;48.048;11.706;2023-08-08T04:05:47;11.30;99.90
5210;DHT22;2624;48.048;11.706;2023-08-08T04:10:50;11.10;99.90
5210;DHT22;2624;48.048;11.706;2023-08-08T04:15:51;11.10;99.90
5210;DHT22;2624;48.048;11.706;2023-08-08T04:20:53;11.10;99.90
5210;DHT22;2624;48.048;11.706;2023-08-08T04:25:56;11.30;99.90
5210;DHT22;2624;48.048;11.706;2023-08-08T04:30:58;11.20;99.90
5210;DHT22;2624;48.048;11.706;2023-08-08T04:36:00;11.20;99.90
5210;DHT22;2624;48.048;11.706;2023-08-08T04:41:03;11.10;99.90
5210;DHT22;2624;48.048;11.706;2023-08-08T04:46:05;11.20;99.90
5210;DHT22;2624;48.048;11.706;2023-08-08T04:51:09;11.20;99.90
5210;DHT22;2624;48.048;11.706;2023-08-08T04:56:12;11.30;99.90
5210;DHT22;2624;48.048;11.706;2023-08-08T05:01:14;11.30;99.90
5210;DHT22;2624;48.048;11.706;2023-08-08T05:06:18;11.20;99.90
5210;DHT22;2624;48.048;11.706;2023-08-08T05:11:21;11.20;99.90
5210;DHT22;2624;48.048;11.706;2023-08-08T05:16:22;11.20;99.90
5210;DHT22;2624;48.048;11.706;2023-08-08T05:21:25;11.20;99.90
5210;DHT22;2624;48.048;11.706;2023-08-08T05:26:28;11.30;99.90
5210;DHT22;2624;48.048;11.706;2023-08-08T05:31:29;11.30;99.90
5210;DHT22;2624;48.048;11.706;2023-08-08T05:36:31;11.30;99.90
5210;DHT22;2624;48.048;11.706;2023-08-08T05:41:34;11.30;99.90
5210;DHT22;2624;48.048;11.706;2023-08-08T05:46:36;11.40;99.90
5210;DHT22;2624;48.048;11.706;2023-08-08T05:51:39;11.40;99.90
5210;DHT22;2624;48.048;11.706;2023-08-08T05:56:42;11.50;99.90
5210;DHT22;2624;48.048;11.706;2023-08-08T06:01:44;11.60;99.90
5210;DHT22;2624;48.048;11.706;2023-08-08T06:06:46;11.60;99.90
5210;DHT22;2624;48.048;11.706;2023-08-08T06:11:50;11.60;99.90
5210;DHT22;2624;48.048;11.706;2023-08-08T06:16:52;11.60;99.90
5210;DHT22;2624;48.048;11.706;2023-08-08T06:21:54;11.70;99.90
5210;DHT22;2624;48.048;11.706;2023-08-08T06:26:57;11.80;99.90
5210;DHT22;2624;48.048;11.706;2023-08-08T06:31:59;11.90;99.90
5210;DHT22;2624;48.048;11.706;2023-08-08T06:37:01;12.00;99.90
5210;DHT22;2624;48.048;11.706;2023-08-08T06:42:04;12.00;99.90
5210;DHT22;2624;48.048;11.706;2023-08-08T06:47:06;12.10;99.90
5210;DHT22;2624;48.048;11.706;2023-08-08T06:52:08;12.10;99.90
5210;DHT22;2624;48.048;11.706;2023-08-08T06:57:11;12.30;99.90
5210;DHT22;2624;48.048;11.706;2023-08-08T07:02:13;12.20;99.90
5210;DHT22;2624;48.048;11.706;2023-08-08T07:07:15;12.40;99.90
5210;DHT22;2624;48.048;11.706;2023-08-08T07:12:18;12.50;99.90
5210;DHT22;2624;48.048;11.706;2023-08-08T07:17:20;12.40;99.90
5210;DHT22;2624;48.048;11.706;2023-08-08T07:22:22;12.50;99.90
5210;DHT22;2624;48.048;11.706;2023-08-08T07:27:26;12.80;99.90
5210;DHT22;2624;48.048;11.706;2023-08-08T07:32:28;12.80;99.90
5210;DHT22;2624;48.048;11.706;2023-08-08T07:37:29;12.90;99.90
5210;DHT22;2624;48.048;11.706;2023-08-08T07:42:32;13.30;99.90
5210;DHT22;2624;48.048;11.706;2023-08-08T07:47:34;13.60;99.90
5210;DHT22;2624;48.048;11.706;2023-08-08T07:52:37;13.70;99.90
5210;DHT22;2624;48.048;11.706;2023-08-08T07:57:40;13.80;99.90
5210;DHT22;2624;48.048;11.706;2023-08-08T08:02:43;13.80;99.90
5210;DHT22;2624;48.048;11.706;2023-08-08T08:07:44;14.00;99.90
5210;DHT22;2624;48.048;11.706;2023-08-08T08:12:48;13.90;99.90
5210;DHT22;2624;48.048;11.706;2023-08-08T08:17:49;14.30;99.90
5210;DHT22;2624;48.048;11.706;2023-08-08T08:22:51;14.30;99.90
5210;DHT22;2624;48.048;11.706;2023-08-08T08:27:54;14.20;99.90
5210;DHT22;2624;48.048;11.706;2023-08-08T08:32:56;14.60;99.90
5210;DHT22;2624;48.048;11.706;2023-08-08T08:37:58;14.20;99.90
5210;DHT22;2624;48.048;11.706;2023-08-08T08:43:01;14.60;99.90
5210;DHT22;2624;48.048;11.706;2023-08-08T08:48:08;15.00;99.90
5210;DHT22;2624;48.048;11.706;2023-08-08T08:53:10;15.00;99.90
5210;DHT22;2624;48.048;11.706;2023-08-08T08:58:15;15.20;99.90
5210;DHT22;2624;48.048;11.706;2023-08-08T09:03:17;14.80;99.90
5210;DHT22;2624;48.048;11.706;2023-08-08T09:08:20;15.20;99.90
5210;DHT22;2624;48.048;11.706;2023-08-08T09:13:23;15.90;99.90
5210;DHT22;2624;48.048;11.706;2023-08-08T09:18:27;15.70;99.90
5210;DHT22;2624;48.048;11.706;2023-08-08T09:23:28;16.00;99.90
5210;DHT22;2624;48.048;11.706;2023-08-08T09:28:31;16.00;99.90
5210;DHT22;2624;48.048;11.706;2023-08-08T09:33:33;16.20;99.90
5210;DHT22;2624;48.048;11.706;2023-08-08T09:38:35;16.10;99.90
5210;DHT22;2624;48.048;11.706;2023-08-08T09:43:38;16.20;99.90
5210;DHT22;2624;48.048;11.706;2023-08-08T09:48:40;17.10;99.90
5210;DHT22;2624;48.048;11.706;2023-08-08T09:53:43;16.40;99.90
5210;DHT22;2624;48.048;11.706;2023-08-08T09:58:47;16.30;99.90
5210;DHT22;2624;48.048;11.706;2023-08-08T10:03:51;16.90;99.90
5210;DHT22;2624;48.048;11.706;2023-08-08T10:08:53;16.70;99.90
5210;DHT22;2624;48.048;11.706;2023-08-08T10:13:57;16.30;99.90
5210;DHT22;2624;48.048;11.706;2023-08-08T10:19:02;16.50;99.90
5210;DHT22;2624;48.048;11.706;2023-08-08T10:24:06;16.90;99.90
5210;DHT22;2624;48.048;11.706;2023-08-08T10:29:18;16.40;99.90
5210;DHT22;2624;48.048;11.706;2023-08-08T10:34:21;16.40;99.90
5210;DHT22;2624;48.048;11.706;2023-08-08T10:39:24;17.20;99.90
5210;DHT22;2624;48.048;11.706;2023-08-08T10:44:28;16.90;99.90
5210;DHT22;2624;48.048;11.706;2023-08-08T10:49:30;16.80;99.90
5210;DHT22;2624;48.048;11.706;2023-08-08T10:54:32;17.20;99.90
5210;DHT22;2624;48.048;11.706;2023-08-08T10:59:37;16.70;99.90
5210;DHT22;2624;48.048;11.706;2023-08-08T11:04:40;17.00;99.90
5210;DHT22;2624;48.048;11.706;2023-08-08T11:09:42;17.30;99.90
5210;DHT22;2624;48.048;11.706;2023-08-08T11:14:45;17.50;99.90
5210;DHT22;2624;48.048;11.706;2023-08-08T11:19:47;17.80;99.90
5210;DHT22;2624;48.048;11.706;2023-08-08T11:24:49;17.40;99.90
5210;DHT22;2624;48.048;11.706;2023-08-08T11:29:52;17.80;99.90
5210;DHT22;2624;48.048;11.706;2023-08-08T11:34:54;18.20;99.90
5210;DHT22;2624;48.048;11.706;2023-08-08T11:39:56;18.80;99.90
5210;DHT22;2624;48.048;11.706;2023-08-08T11:45:00;18.10;99.90
5210;DHT22;2624;48.048;11.706;2023-08-08T11:50:02;18.50;99.90
5210;DHT22;2624;48.048;11.706;2023-08-08T11:55:05;18.30;99.90
5210;DHT22;2624;48.048;11.706;2023-08-08T12:00:10;18.60;99.90
5210;DHT22;2624;48.048;11.706;2023-08-08T12:05:14;17.90;99.90
5210;DHT22;2624;48.048;11.706;2023-08-08T12:10:20;17.60;99.90
5210;DHT22;2624;48.048;11.706;2023-08-08T12:15:27;18.60;99.90
5210;DHT22;2624;48.048;11.706;2023-08-08T12:20:30;18.20;99.90
5210;DHT22;2624;48.048;11.706;2023-08-08T12:25:32;17.90;99.90
5210;DHT22;2624;48.048;11.706;2023-08-08T12:30:36;18.40;99.90
5210;DHT22;2624;48.048;11.706;2023-08-08T12:35:37;19.00;99.90
5210;DHT22;2624;48.048;11.706;2023-08-08T12:40:40;18.80;99.90
5210;DHT22;2624;48.048;11.706;2023-08-08T12:45:43;18.40;99.90
5210;DHT22;2624;48.048;11.706;2023-08-08T12:50:45;19.00;99.90
5210;DHT22;2624;48.048;11.706;2023-08-08T12:55:47;19.00;99.90
5210;DHT22;2624;48.048;11.706;2023-08-08T13:00:50;19.00;99.90
5210;DHT22;2624;48.048;11.706;2023-08-08T13:05:52;19.30;99.20
5210;DHT22;2624;48.048;11.706;2023-08-08T13:10:53;19.50;99.60
5210;DHT22;2624;48.048;11.706;2023-08-08T13:15:57;19.20;99.90
5210;DHT22;2624;48.048;11.706;2023-08-08T13:20:58;19.20;99.90
5210;DHT22;2624;48.048;11.706;2023-08-08T13:26:00;19.20;99.90
5210;DHT22;2624;48.048;11.706;2023-08-08T13:31:05;19.90;97.40
5210;DHT22;2624;48.048;11.706;2023-08-08T13:36:08;19.60;99.70
5210;DHT22;2624;48.048;11.706;2023-08-08T13:41:10;19.40;97.90
5210;DHT22;2624;48.048;11.706;2023-08-08T13:46:13;19.80;97.80
5210;DHT22;2624;48.048;11.706;2023-08-08T13:51:15;19.50;98.50
5210;DHT22;2624;48.048;11.706;2023-08-08T13:56:17;19.70;99.00
5210;DHT22;2624;48.048;11.706;2023-08-08T14:01:20;19.70;98.90
5210;DHT22;2624;48.048;11.706;2023-08-08T14:06:22;19.90;98.30
5210;DHT22;2624;48.048;11.706;2023-08-08T14:11:24;19.70;98.10
5210;DHT22;2624;48.048;11.706;2023-08-08T14:16:27;19.30;99.00
5210;DHT22;2624;48.048;11.706;2023-08-08T14:21:29;19.50;98.30
5210;DHT22;2624;48.048;11.706;2023-08-08T14:26:30;19.30;97.80
5210;DHT22;2624;48.048;11.706;2023-08-08T14:31:34;19.90;97.50
5210;DHT22;2624;48.048;11.706;2023-08-08T14:36:35;19.80;97.60
5210;DHT22;2624;48.048;11.706;2023-08-08T14:41:37;19.70;97.30
5210;DHT22;2624;48.048;11.706;2023-08-08T14:46:40;19.90;96.70
5210;DHT22;2624;48.048;11.706;2023-08-08T14:51:42;19.60;97.90
5210;DHT22;2624;48.048;11.706;2023-08-08T14:56:44;19.60;98.10
5210;DHT22;2624;48.048;11.706;2023-08-08T15:01:47;20.00;95.80
5210;DHT22;2624;48.048;11.706;2023-08-08T15:06:49;19.90;97.80
5210;DHT22;2624;48.048;11.706;2023-08-08T15:11:50;19.80;97.70
5210;DHT22;2624;48.048;11.706;2023-08-08T15:16:54;19.60;98.20
5210;DHT22;2624;48.048;11.706;2023-08-08T15:21:57;19.70;98.10
5210;DHT22;2624;48.048;11.706;2023-08-08T15:26:58;19.70;96.10
5210;DHT22;2624;48.048;11.706;2023-08-08T15:32:01;19.70;97.90
5210;DHT22;2624;48.048;11.706;2023-08-08T15:37:03;19.70;97.90
5210;DHT22;2624;48.048;11.706;2023-08-08T15:42:05;19.70;97.90
5210;DHT22;2624;48.048;11.706;2023-08-08T15:47:08;19.80;96.00
5210;DHT22;2624;48.048;11.706;2023-08-08T15:52:10;19.90;97.10
5210;DHT22;2624;48.048;11.706;2023-08-08T15:57:12;19.90;97.10
5210;DHT22;2624;48.048;11.706;2023-08-08T16:02:15;19.80;95.50
5210;DHT22;2624;48.048;11.706;2023-08-08T16:07:17;19.90;97.50
5210;DHT22;2624;48.048;11.706;2023-08-08T16:12:20;19.90;95.00
5210;DHT22;2624;48.048;11.706;2023-08-08T16:17:23;19.70;97.40
5210;DHT22;2624;48.048;11.706;2023-08-08T16:22:25;19.70;97.60
5210;DHT22;2624;48.048;11.706;2023-08-08T16:27:26;19.80;96.30
5210;DHT22;2624;48.048;11.706;2023-08-08T16:32:29;19.80;96.70
5210;DHT22;2624;48.048;11.706;2023-08-08T16:37:31;19.80;96.50
5210;DHT22;2624;48.048;11.706;2023-08-08T16:42:33;19.80;97.70
5210;DHT22;2624;48.048;11.706;2023-08-08T16:47:36;19.70;98.10
5210;DHT22;2624;48.048;11.706;2023-08-08T16:52:38;19.60;97.70
5210;DHT22;2624;48.048;11.706;2023-08-08T16:57:40;19.60;97.90
5210;DHT22;2624;48.048;11.706;2023-08-08T17:02:43;19.60;97.80
5210;DHT22;2624;48.048;11.706;2023-08-08T17:07:45;19.60;97.30
5210;DHT22;2624;48.048;11.706;2023-08-08T17:12:47;19.50;98.20
5210;DHT22;2624;48.048;11.706;2023-08-08T17:17:50;19.40;98.40
5210;DHT22;2624;48.048;11.706;2023-08-08T17:22:52;19.50;98.20
5210;DHT22;2624;48.048;11.706;2023-08-08T17:27:54;19.40;98.40
5210;DHT22;2624;48.048;11.706;2023-08-08T17:32:57;19.40;98.50
5210;DHT22;2624;48.048;11.706;2023-08-08T17:37:59;19.40;98.50
5210;DHT22;2624;48.048;11.706;2023-08-08T17:43:01;19.30;97.90
5210;DHT22;2624;48.048;11.706;2023-08-08T17:48:04;19.30;98.50
5210;DHT22;2624;48.048;11.706;2023-08-08T17:53:06;19.20;97.20
5210;DHT22;2624;48.048;11.706;2023-08-08T17:58:08;19.30;98.30
5210;DHT22;2624;48.048;11.706;2023-08-08T18:03:11;19.20;98.80
5210;DHT22;2624;48.048;11.706;2023-08-08T18:08:13;19.20;98.00
5210;DHT22;2624;48.048;11.706;2023-08-08T18:13:15;19.10;99.00
5210;DHT22;2624;48.048;11.706;2023-08-08T18:18:18;19.10;99.00
5210;DHT22;2624;48.048;11.706;2023-08-08T18:23:20;19.10;99.10
5210;DHT22;2624;48.048;11.706;2023-08-08T18:28:22;19.00;99.50
5210;DHT22;2624;48.048;11.706;2023-08-08T18:33:26;19.00;99.30
5210;DHT22;2624;48.048;11.706;2023-08-08T18:38:28;18.90;99.00
5210;DHT22;2624;48.048;11.706;2023-08-08T18:43:29;18.80;99.50
5210;DHT22;2624;48.048;11.706;2023-08-08T18:48:32;18.70;99.40
5210;DHT22;2624;48.048;11.706;2023-08-08T18:53:34;18.50;99.60
5210;DHT22;2624;48.048;11.706;2023-08-08T18:58:38;18.40;99.90
5210;DHT22;2624;48.048;11.706;2023-08-08T19:03:42;18.40;99.90
5210;DHT22;2624;48.048;11.706;2023-08-08T19:08:44;18.30;99.90
5210;DHT22;2624;48.048;11.706;2023-08-08T19:13:45;18.30;99.90
5210;DHT22;2624;48.048;11.706;2023-08-08T19:18:49;18.20;99.90
5210;DHT22;2624;48.048;11.706;2023-08-08T19:23:51;18.10;99.90
5210;DHT22;2624;48.048;11.706;2023-08-08T19:28:53;18.00;99.90
5210;DHT22;2624;48.048;11.706;2023-08-08T19:33:56;18.00;99.90
5210;DHT22;2624;48.048;11.706;2023-08-08T19:38:58;17.90;99.90
5210;DHT22;2624;48.048;11.706;2023-08-08T19:44:00;18.00;99.90
5210;DHT22;2624;48.048;11.706;2023-08-08T19:49:03;17.90;99.90
5210;DHT22;2624;48.048;11.706;2023-08-08T19:54:05;17.80;99.90
5210;DHT22;2624;48.048;11.706;2023-08-08T19:59:07;17.80;99.90
5210;DHT22;2624;48.048;11.706;2023-08-08T20:04:10;17.80;99.90
5210;DHT22;2624;48.048;11.706;2023-08-08T20:09:12;17.80;99.90
5210;DHT22;2624;48.048;11.706;2023-08-08T20:14:14;17.80;99.90
5210;DHT22;2624;48.048;11.706;2023-08-08T20:19:17;17.70;99.90
5210;DHT22;2624;48.048;11.706;2023-08-08T20:24:19;17.70;99.90
5210;DHT22;2624;48.048;11.706;2023-08-08T20:29:21;17.70;99.90
5210;DHT22;2624;48.048;11.706;2023-08-08T20:34:24;17.60;99.90
5210;DHT22;2624;48.048;11.706;2023-08-08T20:39:28;17.50;99.90
5210;DHT22;2624;48.048;11.706;2023-08-08T20:44:30;17.60;99.90
5210;DHT22;2624;48.048;11.706;2023-08-08T20:49:33;17.60;99.90
5210;DHT22;2624;48.048;11.706;2023-08-08T20:54:35;17.40;99.90
5210;DHT22;2624;48.048;11.706;2023-08-08T20:59:37;17.30;99.90
5210;DHT22;2624;48.048;11.706;2023-08-08T21:04:40;17.30;99.90
5210;DHT22;2624;48.048;11.706;2023-08-08T21:09:42;17.40;99.90
5210;DHT22;2624;48.048;11.706;2023-08-08T21:14:44;17.30;99.90
5210;DHT22;2624;48.048;11.706;2023-08-08T21:19:47;17.10;99.90
5210;DHT22;2624;48.048;11.706;2023-08-08T21:24:52;16.90;99.90
5210;DHT22;2624;48.048;11.706;2023-08-08T21:29:54;16.90;99.90
5210;DHT22;2624;48.048;11.706;2023-08-08T21:34:57;17.00;99.90
5210;DHT22;2624;48.048;11.706;2023-08-08T21:39:59;16.90;99.90
5210;DHT22;2624;48.048;11.706;2023-08-08T21:45:01;16.80;99.90
5210;DHT22;2624;48.048;11.706;2023-08-08T21:50:05;16.70;99.90
5210;DHT22;2624;48.048;11.706;2023-08-08T21:55:07;16.70;99.90
5210;DHT22;2624;48.048;11.706;2023-08-08T22:00:10;16.80;99.90
5210;DHT22;2624;48.048;11.706;2023-08-08T22:05:15;16.80;99.90
5210;DHT22;2624;48.048;11.706;2023-08-08T22:10:17;16.80;99.90
5210;DHT22;2624;48.048;11.706;2023-08-08T22:15:19;16.80;99.90
5210;DHT22;2624;48.048;11.706;2023-08-08T22:20:22;16.60;99.90
5210;DHT22;2624;48.048;11.706;2023-08-08T22:25:24;16.70;99.90
5210;DHT22;2624;48.048;11.706;2023-08-08T22:30:26;16.60;99.90
5210;DHT22;2624;48.048;11.706;2023-08-08T22:35:29;16.40;99.90
5210;DHT22;2624;48.048;11.706;2023-08-08T22:40:31;16.30;99.90
5210;DHT22;2624;48.048;11.706;2023-08-08T22:45:32;16.40;99.90
5210;DHT22;2624;48.048;11.706;2023-08-08T22:50:36;16.30;99.90
5210;DHT22;2624;48.048;11.706;2023-08-08T22:55:41;16.30;99.90
5210;DHT22;2624;48.048;11.706;2023-08-08T23:00:43;16.10;99.90
5210;DHT22;2624;48.048;11.706;2023-08-08T23:05:46;16.10;99.90
5210;DHT22;2624;48.048;11.706;2023-08-08T23:10:48;16.00;99.90
5210;DHT22;2624;48.048;11.706;2023-08-08T23:15:49;16.00;99.90
5210;DHT22;2624;48.048;11.706;2023-08-08T23:20:52;16.10;99.90
5210;DHT22;2624;48.048;11.706;2023-08-08T23:25:54;15.90;99.90
5210;DHT22;2624;48.048;11.706;2023-08-08T23:30:56;15.70;99.90
5210;DHT22;2624;48.048;11.706;2023-08-08T23:35:59;15.90;99.90
5210;DHT22;2624;48.048;11.706;2023-08-08T23:41:01;16.00;99.90
5210;DHT22;2624;48.048;11.706;2023-08-08T23:46:03;15.80;99.90
5210;DHT22;2624;48.048;11.706;2023-08-08T23:51:06;15.90;99.90
5210;DHT22;2624;48.048;11.706;2023-08-08T23:56:08;16.00;99.90
